createdAt,value
2023-05-25T00:00:33.015Z,21.8
2023-05-25T00:01:49.495Z,21.8
2023-05-25T00:03:05.966Z,21.8
2023-05-25T00:04:22.452Z,21.8
2023-05-25T00:05:38.932Z,21.8
2023-05-25T00:06:55.420Z,21.8
2023-05-25T00:08:11.904Z,21.8
2023-05-25T00:09:28.368Z,21.8
2023-05-25T00:10:44.856Z,21.8
2023-05-25T00:12:01.344Z,21.8
2023-05-25T00:13:17.826Z,21.8
2023-05-25T00:14:34.306Z,21.8
2023-05-25T00:15:50.039Z,21.8
2023-05-25T00:17:06.532Z,21.8
2023-05-25T00:19:39.495Z,21.8
2023-05-25T00:20:55.968Z,21.8
2023-05-25T00:22:12.455Z,21.8
2023-05-25T00:23:28.933Z,21.8
2023-05-25T00:24:45.408Z,21.8
2023-05-25T00:26:01.880Z,21.8
2023-05-25T00:27:18.359Z,21.8
2023-05-25T00:28:34.838Z,21.8
2023-05-25T00:29:51.334Z,21.8
2023-05-25T00:31:07.814Z,21.8
2023-05-25T00:32:23.560Z,21.8
2023-05-25T00:33:40.032Z,21.8
2023-05-25T00:34:56.507Z,21.8
2023-05-25T00:36:12.988Z,21.8
2023-05-25T00:37:29.469Z,21.8
2023-05-25T00:38:45.954Z,21.8
2023-05-25T00:40:02.439Z,21.7
2023-05-25T00:41:18.915Z,21.8
2023-05-25T00:42:35.387Z,21.8
2023-05-25T00:43:51.878Z,21.8
2023-05-25T00:45:08.355Z,21.8
2023-05-25T00:46:24.840Z,21.7
2023-05-25T00:47:41.319Z,21.8
2023-05-25T00:48:57.059Z,21.8
2023-05-25T00:50:13.542Z,21.8
2023-05-25T00:51:30.026Z,21.8
2023-05-25T00:52:46.496Z,21.8
2023-05-25T00:54:02.976Z,21.8
2023-05-25T00:55:19.463Z,21.8
2023-05-25T00:56:35.950Z,21.8
2023-05-25T00:57:52.433Z,21.8
2023-05-25T00:59:08.908Z,21.8
2023-05-25T01:00:25.382Z,21.8
2023-05-25T01:01:41.871Z,21.7
2023-05-25T01:02:58.346Z,21.8
2023-05-25T01:04:14.818Z,21.8
2023-05-25T01:05:30.568Z,21.8
2023-05-25T01:06:47.067Z,21.7
2023-05-25T01:08:03.545Z,21.7
2023-05-25T01:09:20.014Z,21.7
2023-05-25T01:10:36.489Z,21.7
2023-05-25T01:11:52.980Z,21.8
2023-05-25T01:13:09.468Z,21.8
2023-05-25T01:14:25.933Z,21.8
2023-05-25T01:15:42.422Z,21.7
2023-05-25T01:16:58.906Z,21.7
2023-05-25T01:18:15.372Z,21.7
2023-05-25T01:19:31.852Z,21.8
2023-05-25T01:20:48.346Z,21.7
2023-05-25T01:22:04.077Z,21.7
2023-05-25T01:23:20.571Z,21.7
2023-05-25T01:25:53.551Z,21.8
2023-05-25T01:27:10.019Z,21.8
2023-05-25T01:28:26.498Z,21.7
2023-05-25T01:29:42.993Z,21.8
2023-05-25T01:30:59.468Z,21.7
2023-05-25T01:32:15.947Z,21.7
2023-05-25T01:33:32.424Z,21.7
2023-05-25T01:34:48.903Z,21.7
2023-05-25T01:36:05.380Z,21.7
2023-05-25T01:37:21.865Z,21.7
2023-05-25T01:38:37.616Z,21.7
2023-05-25T01:39:54.096Z,21.7
2023-05-25T01:41:10.568Z,21.7
2023-05-25T01:42:27.046Z,21.7
2023-05-25T01:43:43.527Z,21.7
2023-05-25T01:45:00.012Z,21.7
2023-05-25T01:46:16.501Z,21.7
2023-05-25T01:47:32.985Z,21.7
2023-05-25T01:48:49.464Z,21.7
2023-05-25T01:50:05.929Z,21.7
2023-05-25T01:51:22.423Z,21.7
2023-05-25T01:52:38.892Z,21.7
2023-05-25T01:53:55.380Z,21.7
2023-05-25T01:55:11.119Z,21.7
2023-05-25T01:56:27.601Z,21.7
2023-05-25T01:57:44.095Z,21.7
2023-05-25T01:59:00.562Z,21.7
2023-05-25T02:00:17.047Z,21.7
2023-05-25T02:01:33.518Z,21.7
2023-05-25T02:02:50.008Z,21.7
2023-05-25T02:04:06.486Z,21.7
2023-05-25T02:05:22.965Z,21.7
2023-05-25T02:06:39.450Z,21.7
2023-05-25T02:07:55.935Z,21.7
2023-05-25T02:09:12.411Z,21.7
2023-05-25T02:10:28.887Z,21.7
2023-05-25T02:11:44.641Z,21.7
2023-05-25T02:14:17.586Z,21.7
2023-05-25T02:15:34.081Z,21.7
2023-05-25T02:16:50.566Z,21.7
2023-05-25T02:18:07.047Z,21.7
2023-05-25T02:19:23.509Z,21.7
2023-05-25T02:20:39.996Z,21.7
2023-05-25T02:21:56.486Z,21.7
2023-05-25T02:23:12.958Z,21.7
2023-05-25T02:24:29.431Z,21.7
2023-05-25T02:25:45.911Z,21.7
2023-05-25T02:27:02.406Z,21.7
2023-05-25T02:28:18.150Z,21.7
2023-05-25T02:29:34.618Z,21.7
2023-05-25T02:30:51.115Z,21.7
2023-05-25T02:32:07.578Z,21.7
2023-05-25T02:33:24.063Z,21.7
2023-05-25T02:34:40.547Z,21.7
2023-05-25T02:35:57.017Z,21.7
2023-05-25T02:37:13.503Z,21.6
2023-05-25T02:38:29.989Z,21.7
2023-05-25T02:39:46.457Z,21.6
2023-05-25T02:41:02.939Z,21.6
2023-05-25T02:42:19.430Z,21.7
2023-05-25T02:43:35.903Z,21.7
2023-05-25T02:44:51.648Z,21.6
2023-05-25T02:46:08.135Z,21.7
2023-05-25T02:47:24.616Z,21.7
2023-05-25T02:48:41.088Z,21.6
2023-05-25T02:49:57.580Z,21.6
2023-05-25T02:51:14.064Z,21.6
2023-05-25T02:52:30.545Z,21.7
2023-05-25T02:53:47.021Z,21.6
2023-05-25T02:55:03.507Z,21.6
2023-05-25T02:56:19.973Z,21.6
2023-05-25T02:57:36.465Z,21.6
2023-05-25T02:58:52.944Z,21.6
2023-05-25T03:00:09.415Z,21.7
2023-05-25T03:01:25.162Z,21.7
2023-05-25T03:02:41.653Z,21.6
2023-05-25T03:03:58.128Z,21.6
2023-05-25T03:05:14.618Z,21.6
2023-05-25T03:06:31.084Z,21.6
2023-05-25T03:07:47.560Z,21.6
2023-05-25T03:09:04.041Z,21.6
2023-05-25T03:10:20.531Z,21.6
2023-05-25T03:11:37.013Z,21.6
2023-05-25T03:12:53.491Z,21.6
2023-05-25T03:14:09.975Z,21.6
2023-05-25T03:15:26.445Z,21.6
2023-05-25T03:16:42.935Z,21.6
2023-05-25T03:17:59.408Z,21.6
2023-05-25T03:19:15.161Z,21.6
2023-05-25T03:21:48.128Z,21.6
2023-05-25T03:23:04.604Z,21.6
2023-05-25T03:24:21.072Z,21.6
2023-05-25T03:25:37.552Z,21.6
2023-05-25T03:26:54.039Z,21.6
2023-05-25T03:28:10.522Z,21.6
2023-05-25T03:29:27.007Z,21.6
2023-05-25T03:30:43.487Z,21.6
2023-05-25T03:31:59.955Z,21.6
2023-05-25T03:33:16.449Z,21.6
2023-05-25T03:34:32.932Z,21.6
2023-05-25T03:35:48.662Z,21.6
2023-05-25T03:37:05.147Z,21.6
2023-05-25T03:38:21.626Z,21.6
2023-05-25T03:39:38.116Z,21.6
2023-05-25T03:40:54.587Z,21.6
2023-05-25T03:42:11.081Z,21.6
2023-05-25T03:43:27.556Z,21.6
2023-05-25T03:44:44.034Z,21.6
2023-05-25T03:46:00.508Z,21.6
2023-05-25T03:47:16.992Z,21.6
2023-05-25T03:48:33.478Z,21.6
2023-05-25T03:49:49.959Z,21.6
2023-05-25T03:51:06.441Z,21.6
2023-05-25T03:52:22.187Z,21.6
2023-05-25T03:53:38.656Z,21.6
2023-05-25T03:54:55.134Z,21.6
2023-05-25T03:56:11.625Z,21.6
2023-05-25T03:57:28.098Z,21.6
2023-05-25T03:58:43.882Z,21.6
2023-05-25T04:00:00.375Z,21.6
2023-05-25T04:01:16.863Z,21.6
2023-05-25T04:02:33.343Z,21.6
2023-05-25T04:03:49.807Z,21.6
2023-05-25T04:05:06.301Z,21.6
2023-05-25T04:06:22.781Z,21.6
2023-05-25T04:07:39.253Z,21.6
2023-05-25T04:08:55.724Z,21.6
2023-05-25T04:10:12.204Z,21.6
2023-05-25T04:11:28.687Z,21.6
2023-05-25T04:12:45.177Z,21.6
2023-05-25T04:14:01.656Z,21.6
2023-05-25T04:15:17.406Z,21.6
2023-05-25T04:16:33.892Z,21.6
2023-05-25T04:17:50.356Z,21.6
2023-05-25T04:19:06.844Z,21.6
2023-05-25T04:20:23.315Z,21.6
2023-05-25T04:21:39.799Z,21.6
2023-05-25T04:22:56.277Z,21.6
2023-05-25T04:24:12.766Z,21.6
2023-05-25T04:25:29.245Z,21.6
2023-05-25T04:26:45.718Z,21.6
2023-05-25T04:28:02.213Z,21.6
2023-05-25T04:29:18.680Z,21.6
2023-05-25T04:30:35.154Z,21.6
2023-05-25T04:31:50.904Z,21.6
2023-05-25T04:33:07.400Z,21.6
2023-05-25T04:34:23.877Z,21.6
2023-05-25T04:35:40.360Z,21.6
2023-05-25T04:36:56.824Z,21.6
2023-05-25T04:38:13.313Z,21.6
2023-05-25T04:39:29.784Z,21.6
2023-05-25T04:40:46.266Z,21.6
2023-05-25T04:42:02.745Z,21.6
2023-05-25T04:43:19.238Z,21.6
2023-05-25T04:44:35.704Z,21.6
2023-05-25T04:45:52.203Z,21.6
2023-05-25T04:47:08.685Z,21.6
2023-05-25T04:48:24.431Z,21.6
2023-05-25T04:49:40.906Z,21.6
2023-05-25T04:50:57.389Z,21.6
2023-05-25T04:52:13.869Z,21.6
2023-05-25T04:53:30.354Z,21.6
2023-05-25T04:54:46.820Z,21.6
2023-05-25T04:56:03.311Z,21.6
2023-05-25T04:57:19.777Z,21.7
2023-05-25T04:58:36.255Z,21.6
2023-05-25T04:59:52.753Z,21.6
2023-05-25T05:01:09.229Z,21.6
2023-05-25T05:02:25.700Z,21.6
2023-05-25T05:03:42.180Z,21.6
2023-05-25T05:04:57.930Z,21.6
2023-05-25T05:06:14.425Z,21.6
2023-05-25T05:07:30.886Z,21.6
2023-05-25T05:08:47.370Z,21.6
2023-05-25T05:10:03.857Z,21.6
2023-05-25T05:11:20.336Z,21.6
2023-05-25T05:12:36.813Z,21.6
2023-05-25T05:13:53.296Z,21.6
2023-05-25T05:15:09.768Z,21.6
2023-05-25T05:16:26.246Z,21.6
2023-05-25T05:17:42.738Z,21.6
2023-05-25T05:18:59.220Z,21.6
2023-05-25T05:20:15.695Z,21.6
2023-05-25T05:21:31.442Z,21.6
2023-05-25T05:22:47.931Z,21.6
2023-05-25T05:24:04.401Z,21.6
2023-05-25T05:25:20.892Z,21.6
2023-05-25T05:26:37.366Z,21.6
2023-05-25T05:27:53.844Z,21.6
2023-05-25T05:29:10.319Z,21.6
2023-05-25T05:30:26.809Z,21.6
2023-05-25T05:31:43.281Z,21.6
2023-05-25T05:32:59.759Z,21.6
2023-05-25T05:34:16.240Z,21.6
2023-05-25T05:35:32.718Z,21.6
2023-05-25T05:36:49.206Z,21.6
2023-05-25T05:38:05.681Z,21.6
2023-05-25T05:39:21.445Z,21.6
2023-05-25T05:40:37.910Z,21.6
2023-05-25T05:41:54.398Z,21.6
2023-05-25T05:43:10.869Z,21.6
2023-05-25T05:44:27.365Z,21.6
2023-05-25T05:45:43.832Z,21.6
2023-05-25T05:47:00.326Z,21.6
2023-05-25T05:48:16.797Z,21.6
2023-05-25T05:49:33.278Z,21.6
2023-05-25T05:50:49.764Z,21.6
2023-05-25T05:52:06.245Z,21.6
2023-05-25T05:53:22.719Z,21.6
2023-05-25T05:54:39.196Z,21.4
2023-05-25T05:55:55.672Z,21.3
2023-05-25T05:57:11.418Z,21.2
2023-05-25T05:58:27.915Z,21.2
2023-05-25T05:59:44.384Z,21.3
2023-05-25T06:01:00.878Z,21.2
2023-05-25T06:02:17.343Z,20.9
2023-05-25T06:03:33.837Z,20.8
2023-05-25T06:04:50.304Z,20.6
2023-05-25T06:06:06.780Z,20.7
2023-05-25T06:07:23.270Z,20.7
2023-05-25T06:08:39.743Z,20.6
2023-05-25T06:09:56.226Z,20.7
2023-05-25T06:11:12.711Z,20.7
2023-05-25T06:12:29.185Z,20.7
2023-05-25T06:13:45.680Z,20.7
2023-05-25T06:15:01.422Z,20.8
2023-05-25T06:16:17.908Z,20.8
2023-05-25T06:17:34.388Z,20.7
2023-05-25T06:18:50.000Z,20.6
2023-05-25T06:20:07.342Z,20.7
2023-05-25T06:21:23.818Z,20.9
2023-05-25T06:22:40.290Z,21
2023-05-25T06:23:56.784Z,21.1
2023-05-25T06:25:13.265Z,21.1
2023-05-25T06:26:29.747Z,21.2
2023-05-25T06:27:46.221Z,21.2
2023-05-25T06:29:02.707Z,21.2
2023-05-25T06:30:19.187Z,21.2
2023-05-25T06:31:34.921Z,21.2
2023-05-25T06:32:51.415Z,21.3
2023-05-25T06:34:07.899Z,21.4
2023-05-25T06:35:24.364Z,21.4
2023-05-25T06:36:40.842Z,21.5
2023-05-25T06:37:57.333Z,21.5
2023-05-25T06:39:13.812Z,21.5
2023-05-25T06:40:30.298Z,21.5
2023-05-25T06:41:46.767Z,21.5
2023-05-25T06:43:03.260Z,21.6
2023-05-25T06:44:19.733Z,21.6
2023-05-25T06:45:36.202Z,21.6
2023-05-25T06:46:52.694Z,21.6
2023-05-25T06:48:08.451Z,21.6
2023-05-25T06:49:24.922Z,21.6
2023-05-25T06:50:41.397Z,21.6
2023-05-25T06:51:57.878Z,21.7
2023-05-25T06:53:14.363Z,21.7
2023-05-25T06:54:30.847Z,21.7
2023-05-25T06:55:47.314Z,21.7
2023-05-25T06:57:03.810Z,21.7
2023-05-25T06:58:20.270Z,21.7
2023-05-25T06:59:36.768Z,21.7
2023-05-25T07:00:53.239Z,21.7
2023-05-25T07:02:09.727Z,21.7
2023-05-25T07:03:26.199Z,21.7
2023-05-25T07:04:41.944Z,21.7
2023-05-25T07:05:58.431Z,21.7
2023-05-25T07:07:14.915Z,21.7
2023-05-25T07:08:31.395Z,21.7
2023-05-25T07:09:47.868Z,21.7
2023-05-25T07:11:04.353Z,21.7
2023-05-25T07:12:20.826Z,21.7
2023-05-25T07:13:37.312Z,21.8
2023-05-25T07:14:53.798Z,21.8
2023-05-25T07:16:10.272Z,21.8
2023-05-25T07:17:26.759Z,21.8
2023-05-25T07:19:59.718Z,21.8
2023-05-25T07:21:15.455Z,21.8
2023-05-25T07:22:31.931Z,21.8
2023-05-25T07:23:48.429Z,21.8
2023-05-25T07:25:04.896Z,21.8
2023-05-25T07:26:21.391Z,21.8
2023-05-25T07:27:37.867Z,21.8
2023-05-25T07:28:54.340Z,21.8
2023-05-25T07:30:10.813Z,21.8
2023-05-25T07:31:27.293Z,21.8
2023-05-25T07:32:43.790Z,21.8
2023-05-25T07:34:00.264Z,21.8
2023-05-25T07:35:16.746Z,21.8
2023-05-25T07:36:33.230Z,21.8
2023-05-25T07:37:48.979Z,21.8
2023-05-25T07:39:05.449Z,21.8
2023-05-25T07:40:21.924Z,21.8
2023-05-25T07:41:38.404Z,21.8
2023-05-25T07:42:54.883Z,21.8
2023-05-25T07:44:11.374Z,21.8
2023-05-25T07:45:27.849Z,21.8
2023-05-25T07:46:44.338Z,21.8
2023-05-25T07:48:00.811Z,21.9
2023-05-25T07:49:17.295Z,21.8
2023-05-25T07:50:33.778Z,21.8
2023-05-25T07:51:50.255Z,21.8
2023-05-25T07:53:06.740Z,21.8
2023-05-25T07:54:23.221Z,21.8
2023-05-25T07:55:38.000Z,21.8
2023-05-25T07:56:55.453Z,21.7
2023-05-25T07:58:11.922Z,21.7
2023-05-25T07:59:28.408Z,21.7
2023-05-25T08:00:44.877Z,21.7
2023-05-25T08:02:01.354Z,21.7
2023-05-25T08:03:17.847Z,21.7
2023-05-25T08:04:34.320Z,21.6
2023-05-25T08:05:50.803Z,21.6
2023-05-25T08:07:07.286Z,21.6
2023-05-25T08:08:23.761Z,21.6
2023-05-25T08:09:40.235Z,21.7
2023-05-25T08:10:56.722Z,21.6
2023-05-25T08:12:12.478Z,21.7
2023-05-25T08:13:28.963Z,21.7
2023-05-25T08:14:44.736Z,21.6
2023-05-25T08:16:01.226Z,21.5
2023-05-25T08:17:17.710Z,21.5
2023-05-25T08:18:34.191Z,21.5
2023-05-25T08:19:50.658Z,21.5
2023-05-25T08:21:07.144Z,21.5
2023-05-25T08:22:23.620Z,21.6
2023-05-25T08:23:40.102Z,21.6
2023-05-25T08:24:56.596Z,21.7
2023-05-25T08:26:13.072Z,21.7
2023-05-25T08:27:29.555Z,21.7
2023-05-25T08:28:46.025Z,21.7
2023-05-25T08:30:02.504Z,21.8
2023-05-25T08:31:18.246Z,21.8
2023-05-25T08:32:34.725Z,21.8
2023-05-25T08:33:51.215Z,21.8
2023-05-25T08:35:07.686Z,21.8
2023-05-25T08:36:24.187Z,21.8
2023-05-25T08:37:40.665Z,21.9
2023-05-25T08:38:57.142Z,21.9
2023-05-25T08:40:13.612Z,21.8
2023-05-25T08:41:30.101Z,21.8
2023-05-25T08:42:46.571Z,21.7
2023-05-25T08:44:03.065Z,21.7
2023-05-25T08:45:19.534Z,21.7
2023-05-25T08:46:36.014Z,21.7
2023-05-25T08:47:51.774Z,21.8
2023-05-25T08:49:08.238Z,21.7
2023-05-25T08:50:24.720Z,21.7
2023-05-25T08:51:41.216Z,21.7
2023-05-25T08:52:57.688Z,21.7
2023-05-25T08:54:14.165Z,21.6
2023-05-25T08:55:30.647Z,21.6
2023-05-25T08:56:47.135Z,21.7
2023-05-25T08:58:03.655Z,21.7
2023-05-25T08:59:20.088Z,21.7
2023-05-25T09:00:36.577Z,21.7
2023-05-25T09:01:53.048Z,21.7
2023-05-25T09:03:09.520Z,21.7
2023-05-25T09:04:25.280Z,21.7
2023-05-25T09:05:41.756Z,21.7
2023-05-25T09:06:58.239Z,21.6
2023-05-25T09:08:14.708Z,21.6
2023-05-25T09:09:31.193Z,21.6
2023-05-25T09:10:47.672Z,21.7
2023-05-25T09:12:04.155Z,21.7
2023-05-25T09:14:37.129Z,21.8
2023-05-25T09:15:53.601Z,21.8
2023-05-25T09:17:10.076Z,21.8
2023-05-25T09:18:26.550Z,21.8
2023-05-25T09:19:43.049Z,21.8
2023-05-25T09:20:59.635Z,21.8
2023-05-25T09:22:16.113Z,21.8
2023-05-25T09:23:32.598Z,21.8
2023-05-25T09:24:49.080Z,21.8
2023-05-25T09:26:05.563Z,21.8
2023-05-25T09:27:22.040Z,21.8
2023-05-25T09:28:38.527Z,21.9
2023-05-25T09:29:54.999Z,21.9
2023-05-25T09:31:11.485Z,21.9
2023-05-25T09:32:27.961Z,21.9
2023-05-25T09:33:44.434Z,21.8
2023-05-25T09:35:00.915Z,21.8
2023-05-25T09:36:17.395Z,21.7
2023-05-25T09:37:33.154Z,21.7
2023-05-25T09:38:49.641Z,21.7
2023-05-25T09:40:06.117Z,21.7
2023-05-25T09:41:22.582Z,21.7
2023-05-25T09:42:39.066Z,21.8
2023-05-25T09:43:55.549Z,21.8
2023-05-25T09:45:12.040Z,21.8
2023-05-25T09:46:28.516Z,21.8
2023-05-25T09:47:44.992Z,21.7
2023-05-25T09:49:01.481Z,21.6
2023-05-25T09:50:17.949Z,21.6
2023-05-25T09:51:34.432Z,21.7
2023-05-25T09:52:50.914Z,21.7
2023-05-25T09:54:06.654Z,21.8
2023-05-25T09:55:23.134Z,21.8
2023-05-25T09:56:39.614Z,21.8
2023-05-25T09:57:56.000Z,21.8
2023-05-25T09:59:12.583Z,21.8
2023-05-25T10:00:29.069Z,21.8
2023-05-25T10:01:45.544Z,21.8
2023-05-25T10:03:02.020Z,21.8
2023-05-25T10:04:18.502Z,21.9
2023-05-25T10:05:34.980Z,21.9
2023-05-25T10:06:51.470Z,21.9
2023-05-25T10:08:07.936Z,21.9
2023-05-25T10:09:24.418Z,21.9
2023-05-25T10:10:40.174Z,21.9
2023-05-25T10:11:56.646Z,21.9
2023-05-25T10:13:13.130Z,21.9
2023-05-25T10:14:29.618Z,21.9
2023-05-25T10:15:46.094Z,21.9
2023-05-25T10:17:02.577Z,21.9
2023-05-25T10:18:19.047Z,22
2023-05-25T10:19:35.540Z,22
2023-05-25T10:20:52.014Z,22
2023-05-25T10:22:08.490Z,22
2023-05-25T10:23:24.970Z,22
2023-05-25T10:24:41.462Z,22
2023-05-25T10:25:57.947Z,22
2023-05-25T10:27:13.692Z,22
2023-05-25T10:28:30.162Z,22.1
2023-05-25T10:31:03.134Z,22
2023-05-25T10:32:19.616Z,22.1
2023-05-25T10:33:36.094Z,22.1
2023-05-25T10:34:52.577Z,22.1
2023-05-25T10:36:09.054Z,22.1
2023-05-25T10:37:25.520Z,22
2023-05-25T10:38:42.011Z,22.1
2023-05-25T10:39:58.489Z,22
2023-05-25T10:41:14.970Z,22
2023-05-25T10:42:31.449Z,22
2023-05-25T10:43:47.198Z,22
2023-05-25T10:45:03.669Z,22
2023-05-25T10:46:20.157Z,22
2023-05-25T10:47:36.645Z,22
2023-05-25T10:48:53.116Z,22
2023-05-25T10:50:09.598Z,22.1
2023-05-25T10:51:26.081Z,22
2023-05-25T10:52:42.565Z,22.1
2023-05-25T10:53:59.047Z,22
2023-05-25T10:55:15.521Z,22.1
2023-05-25T10:56:32.003Z,22.1
2023-05-25T10:57:48.490Z,22.1
2023-05-25T10:59:04.959Z,22.1
2023-05-25T11:00:20.702Z,22.1
2023-05-25T11:01:37.188Z,22.1
2023-05-25T11:02:53.665Z,22.1
2023-05-25T11:04:10.158Z,22.1
2023-05-25T11:05:26.624Z,22.1
2023-05-25T11:06:43.117Z,22.1
2023-05-25T11:09:16.074Z,22
2023-05-25T11:10:32.551Z,22
2023-05-25T11:11:49.029Z,22.1
2023-05-25T11:13:05.521Z,22.1
2023-05-25T11:14:21.984Z,22.1
2023-05-25T11:15:38.462Z,22.1
2023-05-25T11:16:54.953Z,22.1
2023-05-25T11:18:10.711Z,22.2
2023-05-25T11:19:27.181Z,22.1
2023-05-25T11:20:43.658Z,22.1
2023-05-25T11:22:00.134Z,22.1
2023-05-25T11:23:16.632Z,22.1
2023-05-25T11:24:33.111Z,22.1
2023-05-25T11:25:49.574Z,22.1
2023-05-25T11:27:06.065Z,22.2
2023-05-25T11:28:22.542Z,22.2
2023-05-25T11:29:39.027Z,22.1
2023-05-25T11:30:55.496Z,22.1
2023-05-25T11:32:11.987Z,22.2
2023-05-25T11:33:28.474Z,22.2
2023-05-25T11:34:44.217Z,22.2
2023-05-25T11:36:00.702Z,22.2
2023-05-25T11:37:17.165Z,22.2
2023-05-25T11:39:50.136Z,22.1
2023-05-25T11:41:06.617Z,22.2
2023-05-25T11:42:23.096Z,22.2
2023-05-25T11:43:39.585Z,22.2
2023-05-25T11:44:56.045Z,22.2
2023-05-25T11:47:29.006Z,22.2
2023-05-25T11:48:45.485Z,22.2
2023-05-25T11:50:01.971Z,22.2
2023-05-25T11:51:17.728Z,22.2
2023-05-25T11:52:34.200Z,22.2
2023-05-25T11:53:50.681Z,22.2
2023-05-25T11:55:07.175Z,22.2
2023-05-25T11:56:23.646Z,22.2
2023-05-25T11:57:40.124Z,22.1
2023-05-25T11:58:56.604Z,22.1
2023-05-25T12:00:13.075Z,22.1
2023-05-25T12:01:29.572Z,22.1
2023-05-25T12:02:46.057Z,22.2
2023-05-25T12:04:02.518Z,22.2
2023-05-25T12:05:19.007Z,22.2
2023-05-25T12:06:35.493Z,22.2
2023-05-25T12:07:51.241Z,22.2
2023-05-25T12:09:07.712Z,22.2
2023-05-25T12:10:24.197Z,22.2
2023-05-25T12:11:40.666Z,22.2
2023-05-25T12:12:57.147Z,22.2
2023-05-25T12:14:13.641Z,22.2
2023-05-25T12:15:30.109Z,22.2
2023-05-25T12:16:46.603Z,22.2
2023-05-25T12:18:03.084Z,22.2
2023-05-25T12:19:19.568Z,22.2
2023-05-25T12:20:36.047Z,22.2
2023-05-25T12:21:52.506Z,22.2
2023-05-25T12:23:08.991Z,22.2
2023-05-25T12:25:41.224Z,22.2
2023-05-25T12:26:57.704Z,22.2
2023-05-25T12:28:14.195Z,22.2
2023-05-25T12:29:30.664Z,22.2
2023-05-25T12:30:46.463Z,22.2
2023-05-25T12:32:02.928Z,22.2
2023-05-25T12:33:19.411Z,22.2
2023-05-25T12:34:35.904Z,22.2
2023-05-25T12:35:52.385Z,22.2
2023-05-25T12:37:08.861Z,22.2
2023-05-25T12:38:25.338Z,22.2
2023-05-25T12:39:41.816Z,22.2
2023-05-25T12:40:58.307Z,22.2
2023-05-25T12:42:14.777Z,22.2
2023-05-25T12:43:31.264Z,22.2
2023-05-25T12:44:47.739Z,22.2
2023-05-25T12:46:04.223Z,22.2
2023-05-25T12:47:19.980Z,22.2
2023-05-25T12:48:36.447Z,22.2
2023-05-25T12:49:52.920Z,22.2
2023-05-25T12:51:09.412Z,22.2
2023-05-25T12:52:25.897Z,22.2
2023-05-25T12:53:42.371Z,22.2
2023-05-25T12:54:58.855Z,22.2
2023-05-25T12:56:15.337Z,22.2
2023-05-25T12:57:31.814Z,22.2
2023-05-25T12:58:48.298Z,22.2
2023-05-25T13:00:04.770Z,22.2
2023-05-25T13:01:21.248Z,22.2
2023-05-25T13:03:54.205Z,22.2
2023-05-25T13:05:09.968Z,22.2
2023-05-25T13:06:26.443Z,22.2
2023-05-25T13:07:42.931Z,22.2
2023-05-25T13:10:15.888Z,22.2
2023-05-25T13:11:32.354Z,22.3
2023-05-25T13:12:48.842Z,22.3
2023-05-25T13:14:05.325Z,22.2
2023-05-25T13:15:21.803Z,22.3
2023-05-25T13:16:38.276Z,22.3
2023-05-25T13:17:54.753Z,22.2
2023-05-25T13:19:11.236Z,22.3
2023-05-25T13:20:27.716Z,22.3
2023-05-25T13:21:43.479Z,22.3
2023-05-25T13:22:59.952Z,22.3
2023-05-25T13:24:16.432Z,22.3
2023-05-25T13:25:32.913Z,22.3
2023-05-25T13:26:49.383Z,22.3
2023-05-25T13:28:05.863Z,22.3
2023-05-25T13:29:22.347Z,22.3
2023-05-25T13:30:38.840Z,22.3
2023-05-25T13:31:55.324Z,22.3
2023-05-25T13:33:11.801Z,22.3
2023-05-25T13:34:28.272Z,22.3
2023-05-25T13:35:44.752Z,22.3
2023-05-25T13:37:01.239Z,22.3
2023-05-25T13:38:16.975Z,22.3
2023-05-25T13:39:33.471Z,22.3
2023-05-25T13:42:06.433Z,22.3
2023-05-25T13:43:22.898Z,22.3
2023-05-25T13:44:39.374Z,22.3
2023-05-25T13:45:55.873Z,22.3
2023-05-25T13:47:12.347Z,22.3
2023-05-25T13:48:28.830Z,22.3
2023-05-25T13:49:45.300Z,22.3
2023-05-25T13:51:01.790Z,22.3
2023-05-25T13:52:18.274Z,22.3
2023-05-25T13:53:34.736Z,22.3
2023-05-25T13:54:50.494Z,22.3
2023-05-25T13:56:06.967Z,22.3
2023-05-25T13:57:23.452Z,22.3
2023-05-25T13:58:39.934Z,22.3
2023-05-25T13:59:56.408Z,22.3
2023-05-25T14:01:12.897Z,22.3
2023-05-25T14:02:29.370Z,22.3
2023-05-25T14:03:45.848Z,22.3
2023-05-25T14:05:02.344Z,22.3
2023-05-25T14:06:18.806Z,22.3
2023-05-25T14:07:35.293Z,22.3
2023-05-25T14:08:51.768Z,22.3
2023-05-25T14:10:08.246Z,22.3
2023-05-25T14:11:24.005Z,22.3
2023-05-25T14:12:40.477Z,22.3
2023-05-25T14:13:56.972Z,22.3
2023-05-25T14:15:13.451Z,22.3
2023-05-25T14:16:29.917Z,22.3
2023-05-25T14:17:46.404Z,22.3
2023-05-25T14:20:19.356Z,22.3
2023-05-25T14:21:35.853Z,22.3
2023-05-25T14:22:52.332Z,22.3
2023-05-25T14:24:08.810Z,22.3
2023-05-25T14:25:25.283Z,22.3
2023-05-25T14:26:41.762Z,22.3
2023-05-25T14:27:57.520Z,22.3
2023-05-25T14:29:13.996Z,22.3
2023-05-25T14:30:30.467Z,22.3
2023-05-25T14:31:46.958Z,22.3
2023-05-25T14:33:03.442Z,22.3
2023-05-25T14:34:19.917Z,22.3
2023-05-25T14:35:36.396Z,22.3
2023-05-25T14:36:52.881Z,22.3
2023-05-25T14:38:09.350Z,22.3
2023-05-25T14:39:25.836Z,22.3
2023-05-25T14:40:42.324Z,22.3
2023-05-25T14:41:58.795Z,22.3
2023-05-25T14:43:15.283Z,22.3
2023-05-25T14:44:31.034Z,22.3
2023-05-25T14:47:03.977Z,22.3
2023-05-25T14:48:20.475Z,22.3
2023-05-25T14:49:36.951Z,22.3
2023-05-25T14:50:53.437Z,22.3
2023-05-25T14:52:09.918Z,22.3
2023-05-25T14:53:26.385Z,22.3
2023-05-25T14:54:42.871Z,22.3
2023-05-25T14:55:59.349Z,22.3
2023-05-25T14:57:15.819Z,22.3
2023-05-25T14:58:32.301Z,22.3
2023-05-25T14:59:48.797Z,22.3
2023-05-25T15:01:04.528Z,22.3
2023-05-25T15:02:21.018Z,22.3
2023-05-25T15:03:37.503Z,22.4
2023-05-25T15:04:53.977Z,22.3
2023-05-25T15:06:10.456Z,22.3
2023-05-25T15:07:26.932Z,22.3
2023-05-25T15:08:43.410Z,22.3
2023-05-25T15:09:59.895Z,22.3
2023-05-25T15:11:16.374Z,22.4
2023-05-25T15:12:32.854Z,22.3
2023-05-25T15:13:49.350Z,22.3
2023-05-25T15:15:05.834Z,22.3
2023-05-25T15:16:22.310Z,22.4
2023-05-25T15:17:38.047Z,22.3
2023-05-25T15:18:54.533Z,22.3
2023-05-25T15:20:11.016Z,22.3
2023-05-25T15:21:27.495Z,22.3
2023-05-25T15:22:43.964Z,22.3
2023-05-25T15:24:00.448Z,22.3
2023-05-25T15:25:16.934Z,22.3
2023-05-25T15:26:33.410Z,22.3
2023-05-25T15:27:49.894Z,22.4
2023-05-25T15:29:06.363Z,22.4
2023-05-25T15:30:22.856Z,22.4
2023-05-25T15:31:39.341Z,22.4
2023-05-25T15:32:55.807Z,22.4
2023-05-25T15:34:11.568Z,22.4
2023-05-25T15:35:28.032Z,22.3
2023-05-25T15:36:44.514Z,22.4
2023-05-25T15:38:00.997Z,22.4
2023-05-25T15:39:17.480Z,22.3
2023-05-25T15:40:33.954Z,22.4
2023-05-25T15:41:50.445Z,22.4
2023-05-25T15:43:06.928Z,22.4
2023-05-25T15:44:23.404Z,22.4
2023-05-25T15:45:39.881Z,22.4
2023-05-25T15:46:56.363Z,22.4
2023-05-25T15:48:12.841Z,22.4
2023-05-25T15:49:29.333Z,22.4
2023-05-25T15:50:45.076Z,22.4
2023-05-25T15:52:01.562Z,22.4
2023-05-25T15:57:07.478Z,22.4
2023-05-25T15:58:24.130Z,22.4
2023-05-25T15:59:39.889Z,22.4
2023-05-25T16:00:56.365Z,22.4
2023-05-25T16:02:12.838Z,22.4
2023-05-25T16:03:29.330Z,22.4
2023-05-25T16:04:45.802Z,22.4
2023-05-25T16:06:02.289Z,22.4
2023-05-25T16:07:18.762Z,22.4
2023-05-25T16:08:35.246Z,22.4
2023-05-25T16:09:51.733Z,22.4
2023-05-25T16:11:07.562Z,22.4
2023-05-25T16:12:23.316Z,22.4
2023-05-25T16:13:39.790Z,22.4
2023-05-25T16:14:56.268Z,22.4
2023-05-25T16:16:12.751Z,22.4
2023-05-25T16:17:29.221Z,22.4
2023-05-25T16:18:45.697Z,22.4
2023-05-25T16:20:02.194Z,22.4
2023-05-25T16:21:18.666Z,22.4
2023-05-25T16:22:35.157Z,22.4
2023-05-25T16:23:51.634Z,22.4
2023-05-25T16:25:08.104Z,22.4
2023-05-25T16:26:24.588Z,22.4
2023-05-25T16:27:41.071Z,22.4
2023-05-25T16:28:56.808Z,22.4
2023-05-25T16:30:13.309Z,22.4
2023-05-25T16:31:29.784Z,22.4
2023-05-25T16:32:46.265Z,22.4
2023-05-25T16:34:02.735Z,22.4
2023-05-25T16:35:19.216Z,22.4
2023-05-25T16:36:35.697Z,22.4
2023-05-25T16:37:52.177Z,22.4
2023-05-25T16:39:08.657Z,22.4
2023-05-25T16:40:25.138Z,22.4
2023-05-25T16:41:41.614Z,22.4
2023-05-25T16:42:58.099Z,22.4
2023-05-25T16:44:14.583Z,22.4
2023-05-25T16:45:30.325Z,22.4
2023-05-25T16:46:46.116Z,22.4
2023-05-25T16:48:02.592Z,22.4
2023-05-25T16:49:19.080Z,22.4
2023-05-25T16:50:35.560Z,22.4
2023-05-25T16:51:52.046Z,22.4
2023-05-25T16:54:25.004Z,22.4
2023-05-25T16:55:41.477Z,22.4
2023-05-25T16:56:57.964Z,22.4
2023-05-25T16:58:14.444Z,22.4
2023-05-25T16:59:30.911Z,22.4
2023-05-25T17:00:47.391Z,22.4
2023-05-25T17:02:03.879Z,22.4
2023-05-25T17:03:19.634Z,22.4
2023-05-25T17:04:36.117Z,22.4
2023-05-25T17:05:52.596Z,22.4
2023-05-25T17:07:09.059Z,22.4
2023-05-25T17:08:25.547Z,22.4
2023-05-25T17:09:42.032Z,22.4
2023-05-25T17:10:58.498Z,22.4
2023-05-25T17:12:14.990Z,22.4
2023-05-25T17:13:31.000Z,22.4
2023-05-25T17:14:47.959Z,22.4
2023-05-25T17:16:04.423Z,22.4
2023-05-25T17:17:20.898Z,22.4
2023-05-25T17:18:37.394Z,22.4
2023-05-25T17:19:53.136Z,22.4
2023-05-25T17:21:09.618Z,22.4
2023-05-25T17:22:26.105Z,22.4
2023-05-25T17:23:42.582Z,22.4
2023-05-25T17:24:59.056Z,22.4